sensor_id;sensor_type;location;lat;lon;timestamp;P1;P2;P0
44881;PMS5003;30612;38.304;23.786;2023-12-14T00:01:14;1.20;1.20;1.00
44881;PMS5003;30612;38.304;23.786;2023-12-14T00:03:41;2.40;2.40;1.00
44881;PMS5003;30612;38.304;23.786;2023-12-14T00:06:11;3.60;2.40;1.00
44881;PMS5003;30612;38.304;23.786;2023-12-14T00:08:39;2.40;2.40;1.00
44881;PMS5003;30612;38.304;23.786;2023-12-14T00:11:10;1.80;1.80;1.00
44881;PMS5003;30612;38.304;23.786;2023-12-14T00:13:38;2.40;2.40;0.80
44881;PMS5003;30612;38.304;23.786;2023-12-14T00:16:06;2.80;2.80;1.20
44881;PMS5003;30612;38.304;23.786;2023-12-14T00:18:35;3.80;2.00;1.00
44881;PMS5003;30612;38.304;23.786;2023-12-14T00:21:03;3.20;3.20;1.00
44881;PMS5003;30612;38.304;23.786;2023-12-14T00:23:30;2.00;2.00;1.00
44881;PMS5003;30612;38.304;23.786;2023-12-14T00:25:57;1.00;1.00;0.60
44881;PMS5003;30612;38.304;23.786;2023-12-14T00:28:25;1.40;1.40;0.40
44881;PMS5003;30612;38.304;23.786;2023-12-14T00:30:56;1.60;1.60;0.00
44881;PMS5003;30612;38.304;23.786;2023-12-14T00:33:24;1.40;1.40;1.00
44881;PMS5003;30612;38.304;23.786;2023-12-14T00:35:51;4.00;2.00;0.00
44881;PMS5003;30612;38.304;23.786;2023-12-14T00:38:18;4.20;2.00;1.00
44881;PMS5003;30612;38.304;23.786;2023-12-14T00:40:46;2.80;1.00;0.40
44881;PMS5003;30612;38.304;23.786;2023-12-14T00:43:13;2.00;2.00;1.00
44881;PMS5003;30612;38.304;23.786;2023-12-14T00:45:40;2.00;2.00;0.20
44881;PMS5003;30612;38.304;23.786;2023-12-14T00:48:08;1.40;1.40;0.80
44881;PMS5003;30612;38.304;23.786;2023-12-14T00:50:35;2.00;2.00;1.00
44881;PMS5003;30612;38.304;23.786;2023-12-14T00:53:02;1.80;1.80;1.00
44881;PMS5003;30612;38.304;23.786;2023-12-14T00:55:30;2.00;2.00;1.00
44881;PMS5003;30612;38.304;23.786;2023-12-14T00:57:57;2.00;2.00;1.00
44881;PMS5003;30612;38.304;23.786;2023-12-14T01:00:24;4.20;4.20;1.60
44881;PMS5003;30612;38.304;23.786;2023-12-14T01:02:51;0.00;0.00;0.00
44881;PMS5003;30612;38.304;23.786;2023-12-14T01:05:19;7.00;4.80;2.00
44881;PMS5003;30612;38.304;23.786;2023-12-14T01:07:46;4.20;3.20;1.00
44881;PMS5003;30612;38.304;23.786;2023-12-14T01:10:13;5.00;3.60;1.00
44881;PMS5003;30612;38.304;23.786;2023-12-14T01:12:40;5.20;3.20;1.60
44881;PMS5003;30612;38.304;23.786;2023-12-14T01:15:08;4.20;3.60;1.80
44881;PMS5003;30612;38.304;23.786;2023-12-14T01:17:35;5.80;3.20;1.20
44881;PMS5003;30612;38.304;23.786;2023-12-14T01:20:05;2.80;2.80;1.00
44881;PMS5003;30612;38.304;23.786;2023-12-14T01:22:35;3.20;3.20;1.00
44881;PMS5003;30612;38.304;23.786;2023-12-14T01:25:03;2.00;2.00;1.00
44881;PMS5003;30612;38.304;23.786;2023-12-14T01:27:31;1.80;1.80;1.00
44881;PMS5003;30612;38.304;23.786;2023-12-14T01:29:58;0.00;0.00;0.00
44881;PMS5003;30612;38.304;23.786;2023-12-14T01:32:26;1.80;1.80;1.00
44881;PMS5003;30612;38.304;23.786;2023-12-14T01:34:53;1.60;1.60;0.80
44881;PMS5003;30612;38.304;23.786;2023-12-14T01:37:20;2.60;1.60;1.00
44881;PMS5003;30612;38.304;23.786;2023-12-14T01:39:47;3.20;3.20;2.00
44881;PMS5003;30612;38.304;23.786;2023-12-14T01:42:14;5.60;4.00;1.00
44881;PMS5003;30612;38.304;23.786;2023-12-14T01:44:42;1.60;1.60;1.00
44881;PMS5003;30612;38.304;23.786;2023-12-14T01:47:09;5.00;4.20;2.00
44881;PMS5003;30612;38.304;23.786;2023-12-14T01:49:36;2.00;2.00;2.00
44881;PMS5003;30612;38.304;23.786;2023-12-14T01:52:04;4.00;2.00;1.40
44881;PMS5003;30612;38.304;23.786;2023-12-14T01:54:31;2.00;2.00;1.00
44881;PMS5003;30612;38.304;23.786;2023-12-14T01:56:58;2.00;2.00;1.00
44881;PMS5003;30612;38.304;23.786;2023-12-14T01:59:25;2.60;2.20;1.00
44881;PMS5003;30612;38.304;23.786;2023-12-14T02:01:53;1.00;1.00;0.80
44881;PMS5003;30612;38.304;23.786;2023-12-14T02:04:24;0.80;0.80;0.00
44881;PMS5003;30612;38.304;23.786;2023-12-14T02:06:54;0.20;0.20;0.00
44881;PMS5003;30612;38.304;23.786;2023-12-14T02:09:21;2.80;2.80;1.40
44881;PMS5003;30612;38.304;23.786;2023-12-14T02:11:48;2.00;2.00;0.00
44881;PMS5003;30612;38.304;23.786;2023-12-14T02:14:16;7.20;2.00;0.40
44881;PMS5003;30612;38.304;23.786;2023-12-14T02:16:43;4.60;2.40;1.00
44881;PMS5003;30612;38.304;23.786;2023-12-14T02:19:10;4.00;4.00;2.00
44881;PMS5003;30612;38.304;23.786;2023-12-14T02:21:38;7.00;4.80;3.20
44881;PMS5003;30612;38.304;23.786;2023-12-14T02:24:05;7.80;5.00;2.00
44881;PMS5003;30612;38.304;23.786;2023-12-14T02:26:32;2.40;2.40;1.20
44881;PMS5003;30612;38.304;23.786;2023-12-14T02:28:59;3.20;3.20;1.00
44881;PMS5003;30612;38.304;23.786;2023-12-14T02:31:27;4.20;4.00;1.00
44881;PMS5003;30612;38.304;23.786;2023-12-14T02:33:54;5.00;5.00;2.00
44881;PMS5003;30612;38.304;23.786;2023-12-14T02:36:21;2.00;2.00;1.00
44881;PMS5003;30612;38.304;23.786;2023-12-14T02:38:48;1.00;1.00;1.00
44881;PMS5003;30612;38.304;23.786;2023-12-14T02:41:15;1.00;1.00;0.00
44881;PMS5003;30612;38.304;23.786;2023-12-14T02:43:43;4.00;2.00;1.00
44881;PMS5003;30612;38.304;23.786;2023-12-14T02:46:10;0.00;0.00;0.00
44881;PMS5003;30612;38.304;23.786;2023-12-14T02:48:40;0.40;0.40;0.00
44881;PMS5003;30612;38.304;23.786;2023-12-14T02:51:12;2.00;2.00;1.20
44881;PMS5003;30612;38.304;23.786;2023-12-14T02:53:40;1.80;1.00;1.00
44881;PMS5003;30612;38.304;23.786;2023-12-14T02:56:09;1.00;1.00;0.00
44881;PMS5003;30612;38.304;23.786;2023-12-14T02:58:37;1.00;1.00;0.40
44881;PMS5003;30612;38.304;23.786;2023-12-14T03:01:05;1.20;1.20;0.20
44881;PMS5003;30612;38.304;23.786;2023-12-14T03:03:32;0.80;0.80;0.00
44881;PMS5003;30612;38.304;23.786;2023-12-14T03:05:59;1.00;1.00;0.60
44881;PMS5003;30612;38.304;23.786;2023-12-14T03:08:27;1.00;1.00;0.00
44881;PMS5003;30612;38.304;23.786;2023-12-14T03:10:54;0.80;0.80;0.00
44881;PMS5003;30612;38.304;23.786;2023-12-14T03:13:21;1.00;1.00;0.00
44881;PMS5003;30612;38.304;23.786;2023-12-14T03:15:48;1.40;1.40;0.40
44881;PMS5003;30612;38.304;23.786;2023-12-14T03:18:16;1.00;1.00;0.00
44881;PMS5003;30612;38.304;23.786;2023-12-14T03:20:43;1.00;1.00;0.00
44881;PMS5003;30612;38.304;23.786;2023-12-14T03:23:10;1.40;1.40;0.40
44881;PMS5003;30612;38.304;23.786;2023-12-14T03:25:37;1.00;1.00;1.00
44881;PMS5003;30612;38.304;23.786;2023-12-14T03:28:04;0.60;0.60;0.00
44881;PMS5003;30612;38.304;23.786;2023-12-14T03:30:31;1.20;1.20;0.60
44881;PMS5003;30612;38.304;23.786;2023-12-14T03:32:59;1.80;1.80;1.00
44881;PMS5003;30612;38.304;23.786;2023-12-14T03:35:26;1.00;1.00;0.00
44881;PMS5003;30612;38.304;23.786;2023-12-14T03:37:53;0.00;0.00;0.00
44881;PMS5003;30612;38.304;23.786;2023-12-14T03:40:20;1.00;1.00;0.00
44881;PMS5003;30612;38.304;23.786;2023-12-14T03:42:48;0.00;0.00;0.00
44881;PMS5003;30612;38.304;23.786;2023-12-14T03:45:15;1.20;1.20;0.00
44881;PMS5003;30612;38.304;23.786;2023-12-14T03:47:42;1.00;1.00;0.00
44881;PMS5003;30612;38.304;23.786;2023-12-14T03:50:12;0.60;0.60;0.00
44881;PMS5003;30612;38.304;23.786;2023-12-14T03:52:40;2.00;0.00;0.00
44881;PMS5003;30612;38.304;23.786;2023-12-14T03:55:07;0.00;0.00;0.00
44881;PMS5003;30612;38.304;23.786;2023-12-14T03:57:35;2.80;1.00;0.00
44881;PMS5003;30612;38.304;23.786;2023-12-14T04:00:02;1.80;1.20;0.00
44881;PMS5003;30612;38.304;23.786;2023-12-14T04:02:30;1.20;0.60;0.00
44881;PMS5003;30612;38.304;23.786;2023-12-14T04:04:57;1.00;1.00;0.00
44881;PMS5003;30612;38.304;23.786;2023-12-14T04:07:25;0.20;0.20;0.00
44881;PMS5003;30612;38.304;23.786;2023-12-14T04:09:52;0.00;0.00;0.00
44881;PMS5003;30612;38.304;23.786;2023-12-14T04:12:19;0.00;0.00;0.00
44881;PMS5003;30612;38.304;23.786;2023-12-14T04:14:46;0.80;0.80;0.00
44881;PMS5003;30612;38.304;23.786;2023-12-14T04:17:13;0.00;0.00;0.00
44881;PMS5003;30612;38.304;23.786;2023-12-14T04:19:41;0.00;0.00;0.00
44881;PMS5003;30612;38.304;23.786;2023-12-14T04:22:08;0.40;0.40;0.00
44881;PMS5003;30612;38.304;23.786;2023-12-14T04:24:35;1.00;1.00;1.00
44881;PMS5003;30612;38.304;23.786;2023-12-14T04:27:02;1.00;1.00;0.80
44881;PMS5003;30612;38.304;23.786;2023-12-14T04:29:30;2.00;2.00;1.00
44881;PMS5003;30612;38.304;23.786;2023-12-14T04:31:57;1.20;1.20;1.00
44881;PMS5003;30612;38.304;23.786;2023-12-14T04:34:24;1.40;1.40;1.00
44881;PMS5003;30612;38.304;23.786;2023-12-14T04:36:51;1.40;1.40;1.00
44881;PMS5003;30612;38.304;23.786;2023-12-14T04:39:19;2.00;1.00;0.00
44881;PMS5003;30612;38.304;23.786;2023-12-14T04:41:46;2.00;1.80;1.00
44881;PMS5003;30612;38.304;23.786;2023-12-14T04:44:13;3.60;2.00;1.00
44881;PMS5003;30612;38.304;23.786;2023-12-14T04:46:41;0.60;0.20;0.00
44881;PMS5003;30612;38.304;23.786;2023-12-14T04:49:08;1.60;1.00;0.20
44881;PMS5003;30612;38.304;23.786;2023-12-14T04:51:35;0.00;0.00;0.00
44881;PMS5003;30612;38.304;23.786;2023-12-14T04:54:03;1.00;1.00;1.00
44881;PMS5003;30612;38.304;23.786;2023-12-14T04:56:30;2.00;1.00;0.60
44881;PMS5003;30612;38.304;23.786;2023-12-14T04:58:58;1.00;1.00;0.00
44881;PMS5003;30612;38.304;23.786;2023-12-14T05:01:25;1.00;1.00;0.00
44881;PMS5003;30612;38.304;23.786;2023-12-14T05:03:59;1.00;1.00;0.00
44881;PMS5003;30612;38.304;23.786;2023-12-14T05:06:27;0.00;0.00;0.00
44881;PMS5003;30612;38.304;23.786;2023-12-14T05:08:54;1.80;1.80;1.00
44881;PMS5003;30612;38.304;23.786;2023-12-14T05:11:22;1.60;1.20;0.40
44881;PMS5003;30612;38.304;23.786;2023-12-14T05:13:49;0.80;0.80;0.00
44881;PMS5003;30612;38.304;23.786;2023-12-14T05:16:16;2.40;1.20;1.00
44881;PMS5003;30612;38.304;23.786;2023-12-14T05:18:44;5.00;3.60;1.00
44881;PMS5003;30612;38.304;23.786;2023-12-14T05:21:16;4.60;4.60;2.00
44881;PMS5003;30612;38.304;23.786;2023-12-14T05:23:44;2.00;2.00;1.00
44881;PMS5003;30612;38.304;23.786;2023-12-14T05:26:12;3.20;3.20;1.20
44881;PMS5003;30612;38.304;23.786;2023-12-14T05:28:39;4.40;4.40;1.00
44881;PMS5003;30612;38.304;23.786;2023-12-14T05:31:06;2.40;2.00;1.00
44881;PMS5003;30612;38.304;23.786;2023-12-14T05:33:37;2.00;2.00;1.00
44881;PMS5003;30612;38.304;23.786;2023-12-14T05:36:05;2.00;2.00;1.40
44881;PMS5003;30612;38.304;23.786;2023-12-14T05:38:35;2.00;2.00;1.00
44881;PMS5003;30612;38.304;23.786;2023-12-14T05:41:05;2.40;1.60;1.00
44881;PMS5003;30612;38.304;23.786;2023-12-14T05:43:33;2.00;2.00;0.60
44881;PMS5003;30612;38.304;23.786;2023-12-14T05:46:00;5.00;2.00;1.00
44881;PMS5003;30612;38.304;23.786;2023-12-14T05:48:27;2.40;2.00;1.20
44881;PMS5003;30612;38.304;23.786;2023-12-14T05:50:55;1.20;1.20;0.60
44881;PMS5003;30612;38.304;23.786;2023-12-14T05:53:23;5.00;4.00;2.40
44881;PMS5003;30612;38.304;23.786;2023-12-14T05:55:50;7.00;7.00;4.00
44881;PMS5003;30612;38.304;23.786;2023-12-14T05:58:17;4.00;4.00;2.00
44881;PMS5003;30612;38.304;23.786;2023-12-14T06:00:45;2.40;2.40;1.60
44881;PMS5003;30612;38.304;23.786;2023-12-14T06:03:12;4.00;4.00;2.00
44881;PMS5003;30612;38.304;23.786;2023-12-14T06:05:40;4.20;4.20;2.00
44881;PMS5003;30612;38.304;23.786;2023-12-14T06:08:07;5.40;2.40;1.00
44881;PMS5003;30612;38.304;23.786;2023-12-14T06:10:34;7.00;7.00;2.80
44881;PMS5003;30612;38.304;23.786;2023-12-14T06:13:01;6.40;4.20;2.00
44881;PMS5003;30612;38.304;23.786;2023-12-14T06:15:28;6.20;6.20;3.60
44881;PMS5003;30612;38.304;23.786;2023-12-14T06:17:56;6.40;6.40;4.00
44881;PMS5003;30612;38.304;23.786;2023-12-14T06:20:23;7.40;4.00;2.80
44881;PMS5003;30612;38.304;23.786;2023-12-14T06:22:50;4.00;4.00;2.00
44881;PMS5003;30612;38.304;23.786;2023-12-14T06:25:17;4.00;2.00;2.00
44881;PMS5003;30612;38.304;23.786;2023-12-14T06:27:44;4.00;4.00;1.80
44881;PMS5003;30612;38.304;23.786;2023-12-14T06:30:12;4.60;2.00;1.20
44881;PMS5003;30612;38.304;23.786;2023-12-14T06:32:39;3.60;1.80;1.00
44881;PMS5003;30612;38.304;23.786;2023-12-14T06:35:07;4.80;2.00;1.00
44881;PMS5003;30612;38.304;23.786;2023-12-14T06:37:34;4.00;4.00;2.00
44881;PMS5003;30612;38.304;23.786;2023-12-14T06:40:02;4.00;4.00;1.60
44881;PMS5003;30612;38.304;23.786;2023-12-14T06:42:29;4.80;3.40;2.40
44881;PMS5003;30612;38.304;23.786;2023-12-14T06:44:58;2.80;2.80;1.00
44881;PMS5003;30612;38.304;23.786;2023-12-14T06:47:27;4.80;2.00;1.60
44881;PMS5003;30612;38.304;23.786;2023-12-14T06:49:54;2.00;2.00;1.40
44881;PMS5003;30612;38.304;23.786;2023-12-14T06:52:24;2.20;1.20;0.40
44881;PMS5003;30612;38.304;23.786;2023-12-14T06:54:51;4.60;4.60;2.00
44881;PMS5003;30612;38.304;23.786;2023-12-14T06:57:18;4.00;2.40;2.00
44881;PMS5003;30612;38.304;23.786;2023-12-14T06:59:47;5.00;3.20;1.60
44881;PMS5003;30612;38.304;23.786;2023-12-14T07:02:14;2.80;2.80;1.00
44881;PMS5003;30612;38.304;23.786;2023-12-14T07:04:41;2.40;2.40;1.20
44881;PMS5003;30612;38.304;23.786;2023-12-14T07:07:08;9.60;5.60;4.00
44881;PMS5003;30612;38.304;23.786;2023-12-14T07:09:36;6.00;5.00;2.00
44881;PMS5003;30612;38.304;23.786;2023-12-14T07:12:03;6.60;6.60;4.00
44881;PMS5003;30612;38.304;23.786;2023-12-14T07:14:31;4.00;4.00;2.00
44881;PMS5003;30612;38.304;23.786;2023-12-14T07:16:58;3.60;3.60;0.20
44881;PMS5003;30612;38.304;23.786;2023-12-14T07:19:25;4.80;4.80;2.00
44881;PMS5003;30612;38.304;23.786;2023-12-14T07:21:52;5.40;4.60;2.80
44881;PMS5003;30612;38.304;23.786;2023-12-14T07:24:20;3.60;3.60;2.00
44881;PMS5003;30612;38.304;23.786;2023-12-14T07:26:47;8.20;6.40;4.00
44881;PMS5003;30612;38.304;23.786;2023-12-14T07:29:14;4.20;1.00;0.00
44881;PMS5003;30612;38.304;23.786;2023-12-14T07:31:41;5.60;4.20;2.40
44881;PMS5003;30612;38.304;23.786;2023-12-14T07:34:08;5.00;4.40;2.00
44881;PMS5003;30612;38.304;23.786;2023-12-14T07:36:36;1.20;1.20;0.00
44881;PMS5003;30612;38.304;23.786;2023-12-14T07:39:03;2.00;2.00;1.60
44881;PMS5003;30612;38.304;23.786;2023-12-14T07:41:32;5.80;4.80;2.40
44881;PMS5003;30612;38.304;23.786;2023-12-14T07:44:00;5.00;4.60;2.40
44881;PMS5003;30612;38.304;23.786;2023-12-14T07:46:32;3.60;2.40;2.00
44881;PMS5003;30612;38.304;23.786;2023-12-14T07:48:59;7.20;6.80;4.00
44881;PMS5003;30612;38.304;23.786;2023-12-14T07:51:29;8.00;8.00;5.00
44881;PMS5003;30612;38.304;23.786;2023-12-14T07:53:56;9.80;8.20;5.20
44881;PMS5003;30612;38.304;23.786;2023-12-14T07:56:24;15.00;11.60;8.40
44881;PMS5003;30612;38.304;23.786;2023-12-14T07:58:54;11.00;11.00;6.00
44881;PMS5003;30612;38.304;23.786;2023-12-14T08:01:21;5.80;5.80;4.00
44881;PMS5003;30612;38.304;23.786;2023-12-14T08:03:49;9.00;7.20;4.60
44881;PMS5003;30612;38.304;23.786;2023-12-14T08:06:16;8.00;8.00;4.80
44881;PMS5003;30612;38.304;23.786;2023-12-14T08:08:43;4.00;4.00;1.80
44881;PMS5003;30612;38.304;23.786;2023-12-14T08:11:10;4.00;2.00;2.00
44881;PMS5003;30612;38.304;23.786;2023-12-14T08:13:38;4.00;4.00;2.00
44881;PMS5003;30612;38.304;23.786;2023-12-14T08:16:09;6.60;5.00;4.00
44881;PMS5003;30612;38.304;23.786;2023-12-14T08:18:38;6.00;6.00;4.00
44881;PMS5003;30612;38.304;23.786;2023-12-14T08:21:05;5.80;5.80;4.00
44881;PMS5003;30612;38.304;23.786;2023-12-14T08:23:35;2.80;2.80;2.00
44881;PMS5003;30612;38.304;23.786;2023-12-14T08:26:02;4.60;4.20;2.00
44881;PMS5003;30612;38.304;23.786;2023-12-14T08:28:30;4.40;4.40;2.00
44881;PMS5003;30612;38.304;23.786;2023-12-14T08:30:57;5.20;5.00;2.00
44881;PMS5003;30612;38.304;23.786;2023-12-14T08:33:25;5.20;4.20;2.40
44881;PMS5003;30612;38.304;23.786;2023-12-14T08:35:53;4.00;2.00;2.00
44881;PMS5003;30612;38.304;23.786;2023-12-14T08:38:20;9.60;9.60;5.80
44881;PMS5003;30612;38.304;23.786;2023-12-14T08:40:47;9.80;8.80;6.00
44881;PMS5003;30612;38.304;23.786;2023-12-14T08:43:15;21.20;16.20;10.00
44881;PMS5003;30612;38.304;23.786;2023-12-14T08:45:42;9.80;9.80;6.00
44881;PMS5003;30612;38.304;23.786;2023-12-14T08:48:10;5.20;3.60;1.00
44881;PMS5003;30612;38.304;23.786;2023-12-14T08:50:37;14.80;12.40;6.40
44881;PMS5003;30612;38.304;23.786;2023-12-14T08:53:04;16.00;16.00;9.40
44881;PMS5003;30612;38.304;23.786;2023-12-14T08:55:32;25.60;22.80;13.00
44881;PMS5003;30612;38.304;23.786;2023-12-14T08:58:00;37.20;29.80;18.20
44881;PMS5003;30612;38.304;23.786;2023-12-14T09:00:27;26.40;23.20;12.40
44881;PMS5003;30612;38.304;23.786;2023-12-14T09:02:54;26.60;23.40;13.40
44881;PMS5003;30612;38.304;23.786;2023-12-14T09:05:22;32.60;29.40;16.60
44881;PMS5003;30612;38.304;23.786;2023-12-14T09:07:49;41.20;35.40;21.00
44881;PMS5003;30612;38.304;23.786;2023-12-14T09:10:19;31.00;29.40;18.60
44881;PMS5003;30612;38.304;23.786;2023-12-14T09:12:46;38.40;31.00;19.60
44881;PMS5003;30612;38.304;23.786;2023-12-14T09:15:13;29.60;27.80;18.20
44881;PMS5003;30612;38.304;23.786;2023-12-14T09:17:42;34.80;32.20;18.40
44881;PMS5003;30612;38.304;23.786;2023-12-14T09:20:10;33.80;27.60;15.80
44881;PMS5003;30612;38.304;23.786;2023-12-14T09:22:38;34.80;29.00;16.40
44881;PMS5003;30612;38.304;23.786;2023-12-14T09:25:05;27.20;24.80;16.20
44881;PMS5003;30612;38.304;23.786;2023-12-14T09:27:34;35.40;22.60;12.40
44881;PMS5003;30612;38.304;23.786;2023-12-14T09:30:02;25.60;24.40;16.40
44881;PMS5003;30612;38.304;23.786;2023-12-14T09:32:30;29.40;23.80;14.00
44881;PMS5003;30612;38.304;23.786;2023-12-14T09:34:58;29.60;21.60;12.20
44881;PMS5003;30612;38.304;23.786;2023-12-14T09:37:25;19.60;17.40;11.40
44881;PMS5003;30612;38.304;23.786;2023-12-14T09:39:53;18.40;17.20;11.40
44881;PMS5003;30612;38.304;23.786;2023-12-14T09:42:20;25.00;19.20;14.00
44881;PMS5003;30612;38.304;23.786;2023-12-14T09:44:48;22.40;20.20;11.20
44881;PMS5003;30612;38.304;23.786;2023-12-14T09:47:16;21.80;17.80;10.00
44881;PMS5003;30612;38.304;23.786;2023-12-14T09:49:43;13.40;10.40;5.40
44881;PMS5003;30612;38.304;23.786;2023-12-14T09:52:12;15.00;13.20;6.00
44881;PMS5003;30612;38.304;23.786;2023-12-14T09:54:39;14.20;14.20;7.40
44881;PMS5003;30612;38.304;23.786;2023-12-14T09:57:07;15.00;14.00;8.60
44881;PMS5003;30612;38.304;23.786;2023-12-14T09:59:34;12.20;12.20;7.40
44881;PMS5003;30612;38.304;23.786;2023-12-14T10:02:11;12.40;10.60;6.60
44881;PMS5003;30612;38.304;23.786;2023-12-14T10:04:39;11.20;11.20;7.00
44881;PMS5003;30612;38.304;23.786;2023-12-14T10:07:06;10.40;7.60;4.60
44881;PMS5003;30612;38.304;23.786;2023-12-14T10:09:34;10.00;7.60;5.00
44881;PMS5003;30612;38.304;23.786;2023-12-14T10:12:04;11.40;8.80;6.20
44881;PMS5003;30612;38.304;23.786;2023-12-14T10:14:36;16.60;14.80;9.40
44881;PMS5003;30612;38.304;23.786;2023-12-14T10:17:17;15.00;12.20;6.80
44881;PMS5003;30612;38.304;23.786;2023-12-14T10:19:46;19.80;18.80;11.20
44881;PMS5003;30612;38.304;23.786;2023-12-14T10:22:15;16.80;16.20;8.00
44881;PMS5003;30612;38.304;23.786;2023-12-14T10:24:45;23.60;19.20;10.00
44881;PMS5003;30612;38.304;23.786;2023-12-14T10:27:14;19.00;15.80;8.80
44881;PMS5003;30612;38.304;23.786;2023-12-14T10:29:42;21.20;19.60;12.60
44881;PMS5003;30612;38.304;23.786;2023-12-14T10:32:12;16.40;13.60;12.00
44881;PMS5003;30612;38.304;23.786;2023-12-14T10:34:41;19.60;19.60;12.20
44881;PMS5003;30612;38.304;23.786;2023-12-14T10:37:08;19.60;17.80;10.00
44881;PMS5003;30612;38.304;23.786;2023-12-14T10:39:37;13.20;13.00;8.40
44881;PMS5003;30612;38.304;23.786;2023-12-14T10:42:08;12.60;11.60;7.20
44881;PMS5003;30612;38.304;23.786;2023-12-14T10:44:45;21.20;16.00;10.20
44881;PMS5003;30612;38.304;23.786;2023-12-14T10:47:36;18.80;15.00;8.40
44881;PMS5003;30612;38.304;23.786;2023-12-14T10:50:05;13.00;13.00;7.40
44881;PMS5003;30612;38.304;23.786;2023-12-14T10:52:33;11.60;10.80;6.00
44881;PMS5003;30612;38.304;23.786;2023-12-14T10:55:04;12.20;11.40;6.60
44881;PMS5003;30612;38.304;23.786;2023-12-14T10:57:33;16.00;13.40;7.00
44881;PMS5003;30612;38.304;23.786;2023-12-14T11:00:02;11.20;11.00;6.00
44881;PMS5003;30612;38.304;23.786;2023-12-14T11:02:37;8.20;8.20;5.40
44881;PMS5003;30612;38.304;23.786;2023-12-14T11:05:07;10.20;8.60;5.20
44881;PMS5003;30612;38.304;23.786;2023-12-14T11:10:13;12.00;9.40;4.00
44881;PMS5003;30612;38.304;23.786;2023-12-14T11:12:51;8.00;8.00;3.40
44881;PMS5003;30612;38.304;23.786;2023-12-14T11:15:21;8.60;8.60;4.40
44881;PMS5003;30612;38.304;23.786;2023-12-14T11:23:13;18.40;16.00;8.20
44881;PMS5003;30612;38.304;23.786;2023-12-14T11:25:40;13.80;11.60;7.60
44881;PMS5003;30612;38.304;23.786;2023-12-14T11:28:13;13.60;13.60;6.80
44881;PMS5003;30612;38.304;23.786;2023-12-14T11:30:43;9.60;7.40;3.20
44881;PMS5003;30612;38.304;23.786;2023-12-14T11:33:21;6.60;6.60;3.40
44881;PMS5003;30612;38.304;23.786;2023-12-14T11:35:50;8.80;7.00;4.00
44881;PMS5003;30612;38.304;23.786;2023-12-14T11:38:18;4.00;4.00;3.00
44881;PMS5003;30612;38.304;23.786;2023-12-14T11:40:48;3.60;3.00;1.00
44881;PMS5003;30612;38.304;23.786;2023-12-14T11:43:17;3.00;3.00;2.00
44881;PMS5003;30612;38.304;23.786;2023-12-14T11:45:48;3.20;2.20;1.00
44881;PMS5003;30612;38.304;23.786;2023-12-14T11:48:15;3.40;3.40;2.40
44881;PMS5003;30612;38.304;23.786;2023-12-14T11:50:43;5.20;5.20;2.20
44881;PMS5003;30612;38.304;23.786;2023-12-14T11:53:11;3.00;3.00;1.20
44881;PMS5003;30612;38.304;23.786;2023-12-14T11:55:39;4.40;4.40;3.00
44881;PMS5003;30612;38.304;23.786;2023-12-14T11:58:08;4.00;3.00;2.00
44881;PMS5003;30612;38.304;23.786;2023-12-14T12:00:35;2.40;2.40;1.20
44881;PMS5003;30612;38.304;23.786;2023-12-14T12:03:18;4.00;3.20;2.00
44881;PMS5003;30612;38.304;23.786;2023-12-14T12:05:48;2.40;2.40;1.60
44881;PMS5003;30612;38.304;23.786;2023-12-14T12:08:18;2.00;2.00;1.00
44881;PMS5003;30612;38.304;23.786;2023-12-14T12:10:46;3.20;3.20;1.40
44881;PMS5003;30612;38.304;23.786;2023-12-14T12:13:21;1.80;1.80;0.80
44881;PMS5003;30612;38.304;23.786;2023-12-14T12:15:48;7.60;6.40;2.40
44881;PMS5003;30612;38.304;23.786;2023-12-14T12:18:15;2.80;2.80;2.00
44881;PMS5003;30612;38.304;23.786;2023-12-14T12:20:44;4.80;4.80;3.00
44881;PMS5003;30612;38.304;23.786;2023-12-14T12:23:11;8.80;8.00;3.20
44881;PMS5003;30612;38.304;23.786;2023-12-14T12:25:39;11.00;9.40;4.20
44881;PMS5003;30612;38.304;23.786;2023-12-14T12:28:06;16.20;13.40;7.00
44881;PMS5003;30612;38.304;23.786;2023-12-14T12:30:33;23.60;17.00;9.00
44881;PMS5003;30612;38.304;23.786;2023-12-14T12:33:05;19.80;14.20;8.00
44881;PMS5003;30612;38.304;23.786;2023-12-14T12:35:33;12.60;12.40;7.40
44881;PMS5003;30612;38.304;23.786;2023-12-14T12:38:00;12.00;8.80;4.00
44881;PMS5003;30612;38.304;23.786;2023-12-14T12:40:28;8.20;8.20;5.00
44881;PMS5003;30612;38.304;23.786;2023-12-14T12:42:58;12.20;10.80;8.00
44881;PMS5003;30612;38.304;23.786;2023-12-14T12:45:25;13.20;12.20;7.00
44881;PMS5003;30612;38.304;23.786;2023-12-14T12:47:55;3.80;2.20;1.20
44881;PMS5003;30612;38.304;23.786;2023-12-14T12:50:23;11.40;11.00;5.80
44881;PMS5003;30612;38.304;23.786;2023-12-14T12:52:50;15.80;14.00;8.40
44881;PMS5003;30612;38.304;23.786;2023-12-14T12:55:18;14.20;14.20;9.00
44881;PMS5003;30612;38.304;23.786;2023-12-14T12:57:45;14.60;10.80;7.20
44881;PMS5003;30612;38.304;23.786;2023-12-14T13:00:13;11.20;9.20;6.60
44881;PMS5003;30612;38.304;23.786;2023-12-14T13:02:42;10.20;8.40;6.40
44881;PMS5003;30612;38.304;23.786;2023-12-14T13:05:10;14.40;14.40;8.20
44881;PMS5003;30612;38.304;23.786;2023-12-14T13:07:44;9.00;9.00;6.00
44881;PMS5003;30612;38.304;23.786;2023-12-14T13:10:12;8.60;8.60;4.60
44881;PMS5003;30612;38.304;23.786;2023-12-14T13:12:56;13.60;11.80;7.40
44881;PMS5003;30612;38.304;23.786;2023-12-14T13:15:23;4.40;4.40;3.00
44881;PMS5003;30612;38.304;23.786;2023-12-14T13:17:52;7.20;7.20;3.00
44881;PMS5003;30612;38.304;23.786;2023-12-14T13:20:20;7.00;5.60;2.20
44881;PMS5003;30612;38.304;23.786;2023-12-14T13:22:48;6.60;4.60;3.20
44881;PMS5003;30612;38.304;23.786;2023-12-14T13:25:16;4.00;2.80;1.00
44881;PMS5003;30612;38.304;23.786;2023-12-14T13:27:44;5.00;4.20;3.00
44881;PMS5003;30612;38.304;23.786;2023-12-14T13:30:11;4.80;4.80;2.40
44881;PMS5003;30612;38.304;23.786;2023-12-14T13:32:45;3.80;2.80;1.80
44881;PMS5003;30612;38.304;23.786;2023-12-14T13:35:12;3.20;3.20;1.60
44881;PMS5003;30612;38.304;23.786;2023-12-14T13:37:40;3.80;3.80;1.00
44881;PMS5003;30612;38.304;23.786;2023-12-14T13:40:08;2.00;2.00;0.60
44881;PMS5003;30612;38.304;23.786;2023-12-14T13:42:40;2.00;2.00;1.00
44881;PMS5003;30612;38.304;23.786;2023-12-14T13:45:25;2.80;2.00;1.00
44881;PMS5003;30612;38.304;23.786;2023-12-14T13:47:54;3.40;3.40;2.00
44881;PMS5003;30612;38.304;23.786;2023-12-14T13:50:22;1.60;1.60;1.00
44881;PMS5003;30612;38.304;23.786;2023-12-14T13:52:49;2.60;2.00;1.00
44881;PMS5003;30612;38.304;23.786;2023-12-14T13:55:16;2.00;2.00;1.00
44881;PMS5003;30612;38.304;23.786;2023-12-14T13:57:43;1.00;1.00;0.00
44881;PMS5003;30612;38.304;23.786;2023-12-14T14:00:11;2.00;1.00;1.00
44881;PMS5003;30612;38.304;23.786;2023-12-14T14:02:38;2.00;1.80;0.00
44881;PMS5003;30612;38.304;23.786;2023-12-14T14:05:06;2.00;1.00;0.20
44881;PMS5003;30612;38.304;23.786;2023-12-14T14:07:33;1.40;1.40;0.00
44881;PMS5003;30612;38.304;23.786;2023-12-14T14:10:01;0.00;0.00;0.00
44881;PMS5003;30612;38.304;23.786;2023-12-14T14:12:28;0.60;0.00;0.00
44881;PMS5003;30612;38.304;23.786;2023-12-14T14:14:58;0.00;0.00;0.00
44881;PMS5003;30612;38.304;23.786;2023-12-14T14:17:25;1.00;1.00;0.00